createdAt,value
2023-03-03T00:00:58.041Z,5.66
2023-03-03T00:03:26.991Z,5.72
2023-03-03T00:05:55.227Z,5.69
2023-03-03T00:08:23.182Z,5.73
2023-03-03T00:10:50.663Z,5.72
2023-03-03T00:13:23.608Z,5.73
2023-03-03T00:15:51.674Z,5.65
2023-03-03T00:18:37.519Z,5.71
2023-03-03T00:21:29.089Z,5.73
2023-03-03T00:24:31.797Z,5.68
2023-03-03T00:27:17.274Z,5.65
2023-03-03T00:29:51.155Z,5.66
2023-03-03T00:32:31.663Z,5.60
2023-03-03T00:35:23.781Z,5.63
2023-03-03T00:38:00.134Z,5.59
2023-03-03T00:40:36.191Z,5.56
2023-03-03T00:43:20.677Z,5.47
2023-03-03T00:45:58.558Z,5.57
2023-03-03T00:48:35.787Z,5.54
2023-03-03T00:51:19.369Z,5.49
2023-03-03T00:53:46.274Z,5.51
2023-03-03T00:56:13.142Z,5.43
2023-03-03T00:58:39.989Z,5.46
2023-03-03T01:01:06.872Z,5.36
2023-03-03T01:03:33.736Z,5.37
2023-03-03T01:06:00.570Z,5.34
2023-03-03T01:08:27.495Z,5.33
2023-03-03T01:11:07.509Z,5.42
2023-03-03T01:13:37.903Z,5.29
2023-03-03T01:16:06.140Z,5.29
2023-03-03T01:18:33.298Z,5.22
2023-03-03T01:21:01.973Z,5.09
2023-03-03T01:23:29.175Z,4.98
2023-03-03T01:25:56.047Z,5.04
2023-03-03T01:28:22.969Z,5.00
2023-03-03T01:30:50.833Z,5.04
2023-03-03T01:33:18.308Z,4.92
2023-03-03T01:35:47.462Z,4.79
2023-03-03T01:38:15.714Z,4.84
2023-03-03T01:40:42.585Z,4.78
2023-03-03T01:43:14.707Z,4.85
2023-03-03T01:45:47.223Z,4.83
2023-03-03T01:48:34.877Z,4.66
2023-03-03T01:51:06.311Z,4.66
2023-03-03T01:53:50.977Z,4.57
2023-03-03T01:56:17.876Z,4.54
2023-03-03T01:58:51.567Z,4.56
2023-03-03T02:01:23.136Z,4.50
2023-03-03T02:03:50.874Z,4.55
2023-03-03T02:06:24.345Z,4.55
2023-03-03T02:08:59.449Z,4.64
2023-03-03T02:11:28.710Z,4.47
2023-03-03T02:13:55.558Z,4.53
2023-03-03T02:16:22.587Z,4.51
2023-03-03T02:18:49.599Z,4.34
2023-03-03T02:21:26.519Z,4.36
2023-03-03T02:24:29.017Z,4.37
2023-03-03T02:26:56.234Z,4.39
2023-03-03T02:29:23.123Z,4.33
2023-03-03T02:31:50.180Z,4.31
2023-03-03T02:34:17.741Z,4.35
2023-03-03T02:36:44.636Z,4.28
2023-03-03T02:39:21.941Z,4.30
2023-03-03T02:41:55.586Z,4.27
2023-03-03T02:44:26.857Z,4.30
2023-03-03T02:46:55.909Z,4.11
2023-03-03T02:49:26.586Z,4.30
2023-03-03T02:51:54.386Z,4.22
2023-03-03T02:54:24.719Z,4.10
2023-03-03T02:56:51.732Z,4.29
2023-03-03T02:59:18.857Z,4.18
2023-03-03T03:01:47.034Z,4.28
2023-03-03T03:04:16.996Z,4.26
2023-03-03T03:06:44.822Z,4.16
2023-03-03T03:09:13.584Z,4.26
2023-03-03T03:11:41.486Z,4.15
2023-03-03T03:14:10.289Z,4.09
2023-03-03T03:16:37.520Z,4.32
2023-03-03T03:19:05.030Z,4.31
2023-03-03T03:21:32.761Z,4.32
2023-03-03T03:24:00.176Z,4.30
2023-03-03T03:26:27.340Z,4.35
2023-03-03T03:28:54.651Z,4.36
2023-03-03T03:31:21.989Z,4.19
2023-03-03T03:33:49.168Z,4.41
2023-03-03T03:36:16.774Z,4.35
2023-03-03T03:38:44.070Z,4.45
2023-03-03T03:41:12.107Z,4.43
2023-03-03T03:43:38.983Z,4.45
2023-03-03T03:46:06.260Z,4.41
2023-03-03T03:48:33.278Z,4.45
2023-03-03T03:51:00.146Z,4.49
2023-03-03T03:53:27.339Z,4.40
2023-03-03T03:55:54.164Z,4.47
2023-03-03T03:58:21.187Z,4.33
2023-03-03T04:00:48.755Z,4.45
2023-03-03T04:03:15.746Z,4.50
2023-03-03T04:05:43.434Z,4.54
2023-03-03T04:08:10.972Z,4.49
2023-03-03T04:10:38.090Z,4.57
2023-03-03T04:13:05.098Z,4.58
2023-03-03T04:15:31.980Z,4.54
2023-03-03T04:17:58.849Z,4.47
2023-03-03T04:20:25.663Z,4.47
2023-03-03T04:22:52.627Z,4.58
2023-03-03T04:25:19.558Z,4.55
2023-03-03T04:27:46.624Z,4.52
2023-03-03T04:30:15.733Z,4.60
2023-03-03T04:32:42.873Z,4.61
2023-03-03T04:35:11.851Z,4.58
2023-03-03T04:37:39.040Z,4.62
2023-03-03T04:40:07.935Z,4.62
2023-03-03T04:42:35.548Z,4.40
2023-03-03T04:45:03.982Z,4.64
2023-03-03T04:47:32.444Z,4.66
2023-03-03T04:49:59.390Z,4.65
2023-03-03T04:52:26.199Z,4.65
2023-03-03T04:54:53.033Z,4.61
2023-03-03T04:57:19.829Z,4.60
2023-03-03T04:59:46.712Z,4.53
2023-03-03T05:02:13.800Z,4.76
2023-03-03T05:04:40.886Z,4.67
2023-03-03T05:07:08.074Z,4.68
2023-03-03T05:09:35.511Z,4.75
2023-03-03T05:12:02.461Z,4.57
2023-03-03T05:14:29.342Z,4.81
2023-03-03T05:16:56.176Z,4.79
2023-03-03T05:19:24.178Z,4.73
2023-03-03T05:21:51.004Z,4.71
2023-03-03T05:24:18.229Z,4.83
2023-03-03T05:26:45.052Z,4.54
2023-03-03T05:29:11.851Z,4.56
2023-03-03T05:31:38.688Z,4.71
2023-03-03T05:34:05.572Z,4.69
2023-03-03T05:36:32.419Z,4.73
2023-03-03T05:38:59.249Z,4.85
2023-03-03T05:41:26.124Z,4.84
2023-03-03T05:43:52.940Z,4.84
2023-03-03T05:46:19.781Z,4.87
2023-03-03T05:48:46.739Z,4.94
2023-03-03T05:51:13.530Z,4.75
2023-03-03T05:53:40.365Z,4.96
2023-03-03T05:56:07.439Z,4.95
2023-03-03T05:58:34.391Z,4.98
2023-03-03T06:01:01.174Z,4.99
2023-03-03T06:03:27.996Z,4.98
2023-03-03T06:05:54.885Z,5.00
2023-03-03T06:08:21.723Z,5.02
2023-03-03T06:10:48.588Z,4.94
2023-03-03T06:13:15.392Z,5.03
2023-03-03T06:15:42.220Z,5.00
2023-03-03T06:18:09.358Z,5.01
2023-03-03T06:20:36.643Z,5.07
2023-03-03T06:23:03.701Z,5.09
2023-03-03T06:25:30.524Z,5.03
2023-03-03T06:27:58.017Z,5.10
2023-03-03T06:30:26.933Z,5.12
2023-03-03T06:32:54.459Z,5.15
2023-03-03T06:35:21.290Z,5.11
2023-03-03T06:37:50.771Z,5.20
2023-03-03T06:40:17.895Z,5.13
2023-03-03T06:42:44.928Z,5.23
2023-03-03T06:45:12.245Z,5.13
2023-03-03T06:47:39.035Z,5.24
2023-03-03T06:50:06.967Z,5.26
2023-03-03T06:52:33.918Z,5.15
2023-03-03T06:55:11.516Z,5.19
2023-03-03T06:57:38.456Z,5.24
2023-03-03T07:00:28.531Z,5.28
2023-03-03T07:03:11.762Z,5.30
2023-03-03T07:05:38.602Z,5.10
2023-03-03T07:08:19.492Z,5.12
2023-03-03T07:10:47.682Z,5.18
2023-03-03T07:13:29.663Z,5.17
2023-03-03T07:16:00.191Z,5.25
2023-03-03T07:18:55.033Z,5.32
2023-03-03T07:21:26.351Z,5.27
2023-03-03T07:23:54.162Z,5.32
2023-03-03T07:26:30.742Z,5.39
2023-03-03T07:29:21.466Z,5.41
2023-03-03T07:31:50.089Z,5.36
2023-03-03T07:34:40.913Z,5.44
2023-03-03T07:37:34.796Z,5.24
2023-03-03T07:40:21.440Z,5.38
2023-03-03T07:42:48.361Z,5.39
2023-03-03T07:45:29.989Z,5.49
2023-03-03T07:48:16.034Z,5.45
2023-03-03T07:50:42.830Z,5.42
2023-03-03T07:53:26.693Z,5.58
2023-03-03T07:55:53.962Z,5.63
2023-03-03T07:58:23.484Z,5.57
2023-03-03T08:01:25.306Z,5.67
2023-03-03T08:03:52.520Z,5.65
2023-03-03T08:06:47.870Z,5.67
2023-03-03T08:09:17.579Z,5.71
2023-03-03T08:11:52.051Z,5.73
2023-03-03T08:14:30.026Z,5.63
2023-03-03T08:17:00.591Z,5.61
2023-03-03T08:19:31.901Z,5.49
2023-03-03T08:22:20.398Z,5.66
2023-03-03T08:24:47.269Z,5.66
2023-03-03T08:27:14.085Z,5.64
2023-03-03T08:29:40.961Z,5.68
2023-03-03T08:32:07.927Z,5.46
2023-03-03T08:34:34.825Z,5.56
2023-03-03T08:37:01.685Z,5.53
2023-03-03T08:39:28.486Z,5.39
2023-03-03T08:41:55.374Z,5.59
2023-03-03T08:44:22.251Z,5.59
2023-03-03T08:46:49.159Z,5.56
2023-03-03T08:49:16.082Z,5.53
2023-03-03T08:51:43.034Z,5.57
2023-03-03T08:54:09.852Z,5.66
2023-03-03T08:56:36.824Z,5.60
2023-03-03T08:59:03.963Z,5.61
2023-03-03T09:01:32.846Z,5.63
2023-03-03T09:04:00.140Z,5.81
2023-03-03T09:06:27.024Z,5.74
2023-03-03T09:08:54.936Z,5.82
2023-03-03T09:11:27.437Z,5.85
2023-03-03T09:14:18.069Z,5.88
2023-03-03T09:16:54.472Z,5.81
2023-03-03T09:19:32.361Z,5.79
2023-03-03T09:22:19.769Z,5.99
2023-03-03T09:24:48.971Z,5.89
2023-03-03T09:27:31.803Z,5.90
2023-03-03T09:30:16.728Z,5.96
2023-03-03T09:32:43.699Z,6.03
2023-03-03T09:35:36.719Z,6.12
2023-03-03T09:38:32.291Z,6.10
2023-03-03T09:41:34.510Z,6.08
2023-03-03T09:44:29.516Z,6.07
2023-03-03T09:47:27.736Z,6.16
2023-03-03T09:50:24.018Z,6.21
2023-03-03T09:53:09.526Z,6.25
2023-03-03T09:56:03.502Z,6.21
2023-03-03T09:59:25.182Z,6.26
2023-03-03T10:02:19.454Z,6.28
2023-03-03T10:05:14.518Z,6.34
2023-03-03T10:08:09.821Z,6.36
2023-03-03T10:10:53.854Z,6.40
2023-03-03T10:13:31.388Z,6.46
2023-03-03T10:16:39.340Z,6.38
2023-03-03T10:19:24.769Z,6.45
2023-03-03T10:22:01.002Z,6.55
2023-03-03T10:24:42.126Z,6.52
2023-03-03T10:28:18.836Z,6.60
2023-03-03T10:31:07.979Z,6.70
2023-03-03T10:33:39.221Z,6.77
2023-03-03T10:36:42.180Z,6.80
2023-03-03T10:39:24.336Z,6.78
2023-03-03T10:42:21.069Z,6.67
2023-03-03T10:45:24.401Z,6.93
2023-03-03T10:49:05.714Z,6.96
2023-03-03T10:51:44.399Z,6.84
2023-03-03T10:54:31.604Z,6.84
2023-03-03T10:57:03.156Z,6.91
2023-03-03T11:00:46.791Z,6.82
2023-03-03T11:03:38.043Z,6.90
2023-03-03T11:06:38.321Z,6.97
2023-03-03T11:09:37.772Z,6.90
2023-03-03T11:12:22.803Z,7.02
2023-03-03T11:15:33.101Z,7.09
2023-03-03T11:18:29.055Z,7.05
2023-03-03T11:21:23.401Z,7.07
2023-03-03T11:24:16.066Z,7.07
2023-03-03T11:26:48.652Z,7.18
2023-03-03T11:29:46.511Z,7.23
2023-03-03T11:32:50.893Z,7.46
2023-03-03T11:35:44.638Z,7.56
2023-03-03T11:38:34.198Z,7.76
2023-03-03T11:41:32.725Z,7.90
2023-03-03T11:44:29.675Z,8.09
2023-03-03T11:47:26.890Z,8.01
2023-03-03T11:50:03.643Z,8.04
2023-03-03T11:52:42.145Z,8.06
2023-03-03T11:55:20.055Z,8.00
2023-03-03T11:57:57.097Z,8.02
2023-03-03T12:00:52.545Z,8.34
2023-03-03T12:03:25.997Z,8.37
2023-03-03T12:06:27.959Z,8.40
2023-03-03T12:09:36.739Z,8.61
2023-03-03T12:12:14.530Z,8.37
2023-03-03T12:15:17.325Z,8.28
2023-03-03T12:18:11.806Z,8.42
2023-03-03T12:21:24.526Z,8.43
2023-03-03T12:24:09.505Z,8.51
2023-03-03T12:27:14.916Z,8.43
2023-03-03T12:30:27.169Z,8.22
2023-03-03T12:33:32.756Z,8.35
2023-03-03T12:36:29.717Z,8.48
2023-03-03T12:39:56.917Z,8.42
2023-03-03T12:43:01.229Z,8.63
2023-03-03T12:45:46.656Z,8.67
2023-03-03T12:48:24.629Z,8.48
2023-03-03T12:51:41.937Z,8.44
2023-03-03T12:54:26.730Z,8.48
2023-03-03T12:56:58.927Z,8.59
2023-03-03T12:59:51.802Z,8.70
2023-03-03T13:03:04.320Z,8.75
2023-03-03T13:05:40.252Z,8.62
2023-03-03T13:08:51.499Z,8.82
2023-03-03T13:11:40.889Z,8.85
2023-03-03T13:14:39.810Z,8.90
2023-03-03T13:17:19.274Z,8.94
2023-03-03T13:19:51.540Z,9.04
2023-03-03T13:22:42.078Z,8.87
2023-03-03T13:25:36.004Z,8.93
2023-03-03T13:28:23.919Z,9.36
2023-03-03T13:31:06.911Z,9.24
2023-03-03T13:33:37.535Z,9.32
2023-03-03T13:36:09.754Z,9.14
2023-03-03T13:39:00.885Z,9.12
2023-03-03T13:41:52.097Z,9.17
2023-03-03T13:44:26.011Z,9.37
2023-03-03T13:47:25.699Z,9.53
2023-03-03T13:50:12.500Z,9.52
2023-03-03T13:53:07.689Z,9.84
2023-03-03T13:55:44.216Z,9.63
2023-03-03T13:58:25.644Z,9.50
2023-03-03T14:01:01.986Z,9.40
2023-03-03T14:04:00.211Z,9.54
2023-03-03T14:06:29.266Z,9.52
2023-03-03T14:09:16.479Z,9.43
2023-03-03T14:12:18.289Z,9.50
2023-03-03T14:15:20.755Z,9.48
2023-03-03T14:18:22.625Z,9.38
2023-03-03T14:21:05.164Z,9.51
2023-03-03T14:23:59.488Z,9.41
2023-03-03T14:26:26.422Z,9.24
2023-03-03T14:29:19.715Z,9.32
2023-03-03T14:31:46.571Z,9.54
2023-03-03T14:34:40.113Z,9.60
2023-03-03T14:37:43.505Z,9.70
2023-03-03T14:40:19.360Z,9.71
2023-03-03T14:42:51.845Z,9.71
2023-03-03T14:45:36.095Z,9.66
2023-03-03T14:48:17.935Z,9.96
2023-03-03T14:50:53.187Z,10.05
2023-03-03T14:53:19.894Z,10.05
2023-03-03T14:55:50.486Z,9.91
2023-03-03T14:58:41.732Z,9.94
2023-03-03T15:01:14.233Z,9.68
2023-03-03T15:04:04.124Z,9.62
2023-03-03T15:06:36.911Z,9.73
2023-03-03T15:09:25.685Z,9.79
2023-03-03T15:11:58.954Z,9.86
2023-03-03T15:14:39.094Z,9.95
2023-03-03T15:17:29.821Z,9.98
2023-03-03T15:20:36.910Z,10.00
2023-03-03T15:23:20.424Z,9.96
2023-03-03T15:26:06.084Z,9.94
2023-03-03T15:29:09.618Z,10.22
2023-03-03T15:31:45.592Z,10.31
2023-03-03T15:34:24.974Z,10.34
2023-03-03T15:37:16.387Z,10.42
2023-03-03T15:40:20.620Z,10.38
2023-03-03T15:43:19.622Z,9.98
2023-03-03T15:46:33.492Z,10.08
2023-03-03T15:49:47.129Z,10.16
2023-03-03T15:52:47.036Z,10.16
2023-03-03T15:55:58.880Z,10.12
2023-03-03T15:58:33.351Z,10.05
2023-03-03T16:01:34.318Z,9.83
2023-03-03T16:04:17.008Z,10.00
2023-03-03T16:07:04.251Z,10.23
2023-03-03T16:10:12.003Z,10.18
2023-03-03T16:13:18.236Z,10.05
2023-03-03T16:16:12.382Z,10.02
2023-03-03T16:18:45.896Z,10.07
2023-03-03T16:21:50.089Z,10.08
2023-03-03T16:24:42.972Z,9.91
2023-03-03T16:27:33.054Z,10.03
2023-03-03T16:30:26.625Z,10.04
2023-03-03T16:33:43.916Z,9.97
2023-03-03T16:36:16.750Z,9.86
2023-03-03T16:39:03.498Z,9.87
2023-03-03T16:41:53.181Z,9.92
2023-03-03T16:44:49.850Z,10.07
2023-03-03T16:47:38.905Z,10.10
2023-03-03T16:50:19.497Z,10.07
2023-03-03T16:53:04.748Z,10.07
2023-03-03T16:55:42.133Z,10.01
2023-03-03T16:58:43.978Z,9.99
2023-03-03T17:01:35.332Z,10.01
2023-03-03T17:04:13.785Z,10.02
2023-03-03T17:06:53.716Z,9.95
2023-03-03T17:09:47.618Z,9.77
2023-03-03T17:13:30.537Z,9.94
2023-03-03T17:16:05.152Z,9.89
2023-03-03T17:19:08.367Z,9.90
2023-03-03T17:21:57.168Z,9.86
2023-03-03T17:24:48.893Z,9.72
2023-03-03T17:27:43.773Z,9.66
2023-03-03T17:30:24.290Z,9.62
2023-03-03T17:33:34.395Z,9.69
2023-03-03T17:36:18.253Z,9.57
2023-03-03T17:39:42.265Z,9.65
2023-03-03T17:42:56.270Z,9.68
2023-03-03T17:45:25.843Z,9.65
2023-03-03T17:48:36.895Z,9.58
2023-03-03T17:51:52.731Z,9.50
2023-03-03T17:54:26.358Z,9.53
2023-03-03T17:57:10.895Z,9.53
2023-03-03T18:00:16.517Z,9.52
2023-03-03T18:03:37.219Z,9.47
2023-03-03T18:06:44.592Z,9.45
2023-03-03T18:09:23.920Z,9.42
2023-03-03T18:12:28.587Z,9.34
2023-03-03T18:15:26.225Z,9.24
2023-03-03T18:18:06.713Z,9.08
2023-03-03T18:21:06.012Z,8.99
2023-03-03T18:23:42.404Z,8.95
2023-03-03T18:26:35.002Z,8.99
2023-03-03T18:29:17.162Z,8.91
2023-03-03T18:31:49.120Z,8.87
2023-03-03T18:34:21.889Z,8.85
2023-03-03T18:36:58.484Z,8.84
2023-03-03T18:39:43.239Z,8.83
2023-03-03T18:42:16.048Z,8.82
2023-03-03T18:44:47.885Z,8.80
2023-03-03T18:47:17.701Z,8.70
2023-03-03T18:49:55.683Z,8.69
2023-03-03T18:52:29.457Z,8.70
2023-03-03T18:55:21.013Z,8.63
2023-03-03T18:58:29.862Z,8.57
2023-03-03T19:01:31.855Z,8.60
2023-03-03T19:04:18.528Z,8.59
2023-03-03T19:06:48.312Z,8.61
2023-03-03T19:10:01.355Z,8.33
2023-03-03T19:12:53.203Z,8.60
2023-03-03T19:15:33.893Z,8.55
2023-03-03T19:18:02.412Z,8.50
2023-03-03T19:20:45.702Z,8.50
2023-03-03T19:23:17.810Z,8.50
2023-03-03T19:25:44.726Z,8.46
2023-03-03T19:28:50.213Z,8.33
2023-03-03T19:31:35.004Z,8.41
2023-03-03T19:34:25.460Z,8.37
2023-03-03T19:37:31.197Z,8.33
2023-03-03T19:40:22.214Z,8.27
2023-03-03T19:42:56.465Z,8.25
2023-03-03T19:45:54.079Z,8.21
2023-03-03T19:48:55.419Z,8.13
2023-03-03T19:51:43.022Z,8.08
2023-03-03T19:54:46.321Z,7.89
2023-03-03T19:57:59.169Z,7.97
2023-03-03T20:00:39.778Z,7.93
2023-03-03T20:03:48.115Z,7.89
2023-03-03T20:06:49.038Z,7.85
2023-03-03T20:09:37.347Z,7.77
2023-03-03T20:12:28.068Z,7.69
2023-03-03T20:15:12.382Z,7.57
2023-03-03T20:18:14.471Z,7.53
2023-03-03T20:20:55.309Z,7.66
2023-03-03T20:23:36.518Z,7.58
2023-03-03T20:26:23.488Z,7.40
2023-03-03T20:29:40.355Z,7.47
2023-03-03T20:32:42.822Z,7.45
2023-03-03T20:36:17.408Z,7.38
2023-03-03T20:39:15.422Z,7.30
2023-03-03T20:42:13.620Z,7.23
2023-03-03T20:45:07.455Z,7.17
2023-03-03T20:48:12.172Z,7.07
2023-03-03T20:51:14.111Z,7.01
2023-03-03T20:54:15.649Z,6.97
2023-03-03T20:57:35.486Z,6.89
2023-03-03T21:00:13.572Z,6.75
2023-03-03T21:03:06.359Z,6.77
2023-03-03T21:05:33.216Z,6.69
2023-03-03T21:08:03.832Z,6.64
2023-03-03T21:10:37.216Z,6.62
2023-03-03T21:13:36.936Z,6.55
2023-03-03T21:16:26.821Z,6.55
2023-03-03T21:19:01.128Z,6.40
2023-03-03T21:21:35.354Z,6.41
2023-03-03T21:24:02.246Z,6.17
2023-03-03T21:26:58.326Z,6.33
2023-03-03T21:29:33.425Z,6.30
2023-03-03T21:32:09.407Z,6.15
2023-03-03T21:34:42.129Z,6.23
2023-03-03T21:37:12.413Z,6.18
2023-03-03T21:39:43.625Z,6.19
2023-03-03T21:42:12.164Z,6.08
2023-03-03T21:44:51.134Z,6.06
2023-03-03T21:47:20.983Z,6.07
2023-03-03T21:49:51.024Z,5.94
2023-03-03T21:52:20.454Z,5.93
2023-03-03T21:54:49.865Z,5.95
2023-03-03T21:57:17.365Z,5.77
2023-03-03T21:59:44.247Z,5.95
2023-03-03T22:02:11.314Z,5.93
2023-03-03T22:04:38.880Z,5.81
2023-03-03T22:07:06.111Z,5.75
2023-03-03T22:09:32.985Z,5.72
2023-03-03T22:11:59.844Z,5.75
2023-03-03T22:14:26.829Z,5.71
2023-03-03T22:16:53.689Z,5.71
2023-03-03T22:19:20.498Z,5.44
2023-03-03T22:21:47.685Z,5.36
2023-03-03T22:24:14.524Z,5.57
2023-03-03T22:26:41.343Z,5.57
2023-03-03T22:29:08.762Z,5.50
2023-03-03T22:31:35.665Z,5.39
2023-03-03T22:34:03.025Z,5.44
2023-03-03T22:36:29.838Z,5.41
2023-03-03T22:38:56.644Z,5.38
2023-03-03T22:41:23.534Z,5.29
2023-03-03T22:43:50.615Z,5.29
2023-03-03T22:46:17.488Z,5.23
2023-03-03T22:48:44.317Z,5.24
2023-03-03T22:51:11.166Z,5.23
2023-03-03T22:53:37.949Z,5.08
2023-03-03T22:56:05.181Z,5.13
2023-03-03T22:58:31.966Z,5.13
2023-03-03T23:00:58.803Z,5.12
2023-03-03T23:03:25.736Z,5.07
2023-03-03T23:05:52.756Z,4.78
2023-03-03T23:08:21.072Z,5.04
2023-03-03T23:10:48.330Z,5.02
2023-03-03T23:13:15.724Z,4.93
2023-03-03T23:15:42.981Z,4.93
2023-03-03T23:18:10.197Z,4.93
2023-03-03T23:20:37.030Z,4.91
2023-03-03T23:23:04.220Z,4.87
2023-03-03T23:25:31.194Z,4.90
2023-03-03T23:27:58.157Z,4.87
2023-03-03T23:30:25.369Z,4.68
2023-03-03T23:32:52.483Z,4.70
2023-03-03T23:35:20.129Z,4.81
2023-03-03T23:37:47.023Z,4.78
2023-03-03T23:40:17.056Z,4.74
2023-03-03T23:42:44.273Z,4.72
2023-03-03T23:45:12.851Z,4.57
2023-03-03T23:47:40.330Z,4.59
2023-03-03T23:50:08.531Z,4.58
2023-03-03T23:52:35.433Z,4.45
2023-03-03T23:55:02.830Z,4.57
2023-03-03T23:57:29.717Z,4.53
2023-03-03T23:59:56.591Z,4.49
